createdAt,value
2019-05-29T00:00:50.109Z,92.40
2019-05-29T00:03:21.548Z,92.60
2019-05-29T00:05:52.714Z,92.40
2019-05-29T00:08:24.222Z,92.40
2019-05-29T00:10:55.570Z,92.40
2019-05-29T00:13:27.284Z,92.40
2019-05-29T00:15:58.987Z,92.40
2019-05-29T00:18:30.561Z,92.40
2019-05-29T00:21:02.546Z,92.30
2019-05-29T00:23:33.973Z,92.40
2019-05-29T00:26:06.342Z,92.40
2019-05-29T00:28:38.638Z,92.40
2019-05-29T00:31:10.007Z,92.30
2019-05-29T00:33:41.357Z,92.30
2019-05-29T00:36:12.904Z,92.30
2019-05-29T00:38:44.425Z,92.30
2019-05-29T00:41:17.061Z,92.30
2019-05-29T00:43:48.602Z,92.30
2019-05-29T00:46:20.524Z,92.30
2019-05-29T00:48:52.470Z,92.20
2019-05-29T00:51:23.932Z,92.20
2019-05-29T00:53:55.983Z,92.30
2019-05-29T00:56:27.325Z,92.20
2019-05-29T00:58:58.998Z,92.30
2019-05-29T01:01:30.473Z,92.30
2019-05-29T01:04:03.333Z,92.30
2019-05-29T01:06:35.061Z,92.30
2019-05-29T01:09:06.603Z,92.30
2019-05-29T01:11:38.221Z,92.20
2019-05-29T01:14:10.979Z,92.20
2019-05-29T01:16:42.885Z,92.20
2019-05-29T01:19:26.374Z,92.10
2019-05-29T01:21:58.068Z,92.20
2019-05-29T01:24:29.448Z,92.10
2019-05-29T01:27:00.914Z,92.20
2019-05-29T01:29:32.341Z,92.20
2019-05-29T01:32:03.914Z,92.10
2019-05-29T01:34:35.463Z,92.10
2019-05-29T01:37:07.130Z,92.10
2019-05-29T01:39:38.729Z,92.10
2019-05-29T01:42:10.360Z,92.00
2019-05-29T01:44:41.699Z,92.00
2019-05-29T01:47:13.299Z,92.00
2019-05-29T01:49:45.194Z,91.90
2019-05-29T01:52:17.579Z,91.90
2019-05-29T01:54:49.402Z,92.00
2019-05-29T01:57:21.523Z,92.00
2019-05-29T01:59:53.497Z,92.00
2019-05-29T02:02:25.140Z,92.00
2019-05-29T02:04:56.659Z,92.00
2019-05-29T02:07:30.126Z,91.90
2019-05-29T02:10:03.326Z,91.70
2019-05-29T02:12:34.726Z,91.60
2019-05-29T02:15:21.127Z,91.50
2019-05-29T02:17:40.318Z,91.40
2019-05-29T02:20:11.982Z,91.30
2019-05-29T02:22:43.359Z,91.60
2019-05-29T02:25:18.035Z,91.30
2019-05-29T02:27:50.433Z,91.40
2019-05-29T02:30:24.913Z,91.30
2019-05-29T02:32:55.752Z,91.30
2019-05-29T02:35:29.408Z,91.30
2019-05-29T02:38:00.865Z,91.30
2019-05-29T02:40:32.468Z,91.30
2019-05-29T02:43:03.986Z,91.30
2019-05-29T02:45:52.776Z,91.30
2019-05-29T02:48:08.925Z,91.30
2019-05-29T02:50:40.743Z,91.30
2019-05-29T02:53:12.264Z,91.30
2019-05-29T02:55:43.823Z,91.30
2019-05-29T02:58:15.314Z,91.30
2019-05-29T03:00:52.203Z,91.30
2019-05-29T03:03:26.333Z,91.30
2019-05-29T03:05:57.508Z,91.30
2019-05-29T03:08:30.007Z,91.40
2019-05-29T03:11:02.589Z,91.30
2019-05-29T03:13:34.330Z,91.30
2019-05-29T03:16:11.367Z,91.40
2019-05-29T03:18:39.544Z,91.30
2019-05-29T03:21:11.275Z,91.30
2019-05-29T03:23:42.824Z,91.30
2019-05-29T03:26:14.318Z,91.40
2019-05-29T03:28:46.026Z,91.40
2019-05-29T03:31:17.533Z,91.30
2019-05-29T03:33:50.872Z,91.20
2019-05-29T03:36:22.432Z,91.20
2019-05-29T03:38:53.895Z,91.10
2019-05-29T03:41:26.280Z,91.20
2019-05-29T03:43:57.734Z,91.30
2019-05-29T03:46:34.214Z,91.30
2019-05-29T03:49:02.206Z,91.30
2019-05-29T03:51:35.036Z,91.30
2019-05-29T03:54:06.595Z,91.40
2019-05-29T03:56:38.932Z,91.40
2019-05-29T03:59:10.946Z,91.40
2019-05-29T04:01:42.561Z,91.40
2019-05-29T04:04:13.844Z,91.40
2019-05-29T04:06:47.401Z,91.80
2019-05-29T04:09:18.400Z,91.50
2019-05-29T04:11:50.396Z,91.50
2019-05-29T04:14:21.933Z,91.40
2019-05-29T04:16:59.721Z,91.20
2019-05-29T04:19:29.988Z,91.30
2019-05-29T04:22:05.279Z,91.20
2019-05-29T04:24:38.395Z,91.20
2019-05-29T04:27:11.505Z,91.40
2019-05-29T04:29:43.497Z,91.30
2019-05-29T04:32:15.013Z,91.20
2019-05-29T04:34:46.181Z,91.20
2019-05-29T04:37:17.371Z,91.20
2019-05-29T04:39:48.935Z,91.20
2019-05-29T04:42:20.537Z,91.10
2019-05-29T04:44:51.928Z,91.10
2019-05-29T04:47:23.600Z,91.10
2019-05-29T04:49:55.412Z,91.10
2019-05-29T04:52:26.853Z,91.10
2019-05-29T04:54:58.340Z,91.20
2019-05-29T04:57:30.747Z,91.10
2019-05-29T05:00:04.904Z,91.10
2019-05-29T05:02:37.286Z,91.00
2019-05-29T05:05:08.970Z,91.00
2019-05-29T05:07:40.762Z,90.90
2019-05-29T05:10:15.847Z,90.90
2019-05-29T05:12:47.445Z,90.90
2019-05-29T05:15:18.689Z,90.90
2019-05-29T05:17:50.493Z,90.90
2019-05-29T05:20:21.995Z,90.90
2019-05-29T05:22:53.427Z,90.90
2019-05-29T05:25:25.344Z,90.90
2019-05-29T05:27:56.828Z,90.90
2019-05-29T05:30:28.306Z,90.80
2019-05-29T05:32:59.653Z,90.70
2019-05-29T05:35:32.333Z,90.70
2019-05-29T05:38:03.925Z,90.70
2019-05-29T05:40:38.516Z,90.70
2019-05-29T05:43:23.215Z,90.80
2019-05-29T05:45:41.949Z,90.80
2019-05-29T05:48:13.434Z,90.70
2019-05-29T05:50:44.933Z,90.60
2019-05-29T05:53:16.619Z,90.70
2019-05-29T05:55:48.156Z,90.70
2019-05-29T05:58:19.785Z,90.80
2019-05-29T06:00:51.251Z,90.60
2019-05-29T06:03:22.832Z,90.50
2019-05-29T06:05:54.398Z,90.60
2019-05-29T06:08:25.685Z,90.50
2019-05-29T06:10:57.184Z,90.40
2019-05-29T06:13:28.607Z,90.40
2019-05-29T06:16:00.167Z,90.40
2019-05-29T06:18:32.364Z,90.40
2019-05-29T06:21:04.166Z,90.20
2019-05-29T06:23:36.949Z,90.20
2019-05-29T06:26:08.729Z,90.20
2019-05-29T06:28:41.268Z,90.20
2019-05-29T06:31:12.862Z,90.10
2019-05-29T06:33:44.260Z,90.10
2019-05-29T06:36:16.087Z,90.20
2019-05-29T06:38:47.395Z,90.10
2019-05-29T06:41:19.222Z,90.10
2019-05-29T06:43:50.923Z,90.10
2019-05-29T06:46:22.318Z,90.00
2019-05-29T06:49:00.489Z,90.10
2019-05-29T06:51:26.822Z,90.00
2019-05-29T06:53:58.565Z,89.60
2019-05-29T06:56:29.881Z,88.80
2019-05-29T06:59:01.452Z,89.20
2019-05-29T07:01:33.026Z,89.10
2019-05-29T07:04:11.813Z,89.10
2019-05-29T07:06:38.985Z,88.90
2019-05-29T07:09:10.411Z,88.60
2019-05-29T07:11:41.837Z,88.30
2019-05-29T07:14:13.475Z,88.40
2019-05-29T07:16:55.111Z,88.50
2019-05-29T07:19:25.777Z,88.30
2019-05-29T07:21:51.743Z,88.50
2019-05-29T07:24:23.075Z,88.10
2019-05-29T07:26:54.714Z,87.80
2019-05-29T07:29:27.232Z,87.80
2019-05-29T07:31:59.029Z,87.70
2019-05-29T07:34:30.329Z,87.90
2019-05-29T07:37:01.598Z,88.10
2019-05-29T07:39:33.051Z,87.80
2019-05-29T07:42:04.646Z,88.20
2019-05-29T07:44:36.241Z,88.30
2019-05-29T07:47:09.884Z,88.60
2019-05-29T07:49:43.505Z,88.70
2019-05-29T07:52:14.204Z,88.70
2019-05-29T07:54:45.836Z,88.40
2019-05-29T07:57:17.530Z,88.60
2019-05-29T07:59:49.147Z,88.80
2019-05-29T08:02:20.605Z,89.40
2019-05-29T08:04:52.323Z,89.10
2019-05-29T08:07:23.802Z,89.00
2019-05-29T08:09:55.361Z,89.00
2019-05-29T08:12:26.833Z,89.30
2019-05-29T08:14:59.914Z,89.20
2019-05-29T08:17:31.298Z,89.20
2019-05-29T08:20:07.624Z,89.20
2019-05-29T08:22:38.005Z,89.50
2019-05-29T08:25:09.590Z,89.60
2019-05-29T08:27:40.876Z,89.70
2019-05-29T08:30:12.364Z,89.60
2019-05-29T08:32:44.038Z,89.60
2019-05-29T08:35:16.743Z,89.80
2019-05-29T08:37:49.144Z,89.80
2019-05-29T08:40:20.746Z,89.50
2019-05-29T08:42:52.072Z,89.30
2019-05-29T08:45:24.822Z,88.80
2019-05-29T08:47:56.095Z,88.70
2019-05-29T08:50:27.682Z,88.70
2019-05-29T08:53:02.433Z,88.80
2019-05-29T08:55:32.561Z,88.70
2019-05-29T08:58:03.996Z,88.60
2019-05-29T09:00:35.278Z,89.40
2019-05-29T09:03:06.661Z,88.70
2019-05-29T09:05:38.336Z,88.40
2019-05-29T09:08:10.011Z,88.50
2019-05-29T09:10:41.430Z,87.80
2019-05-29T09:13:12.814Z,87.50
2019-05-29T09:15:44.122Z,87.10
2019-05-29T09:18:15.568Z,87.10
2019-05-29T09:21:01.967Z,87.20
2019-05-29T09:23:20.907Z,87.10
2019-05-29T09:25:52.486Z,86.60
2019-05-29T09:28:23.976Z,86.30
2019-05-29T09:30:55.451Z,86.40
2019-05-29T09:33:26.808Z,86.30
2019-05-29T09:35:58.884Z,85.90
2019-05-29T09:38:30.437Z,85.80
2019-05-29T09:41:01.882Z,85.40
2019-05-29T09:43:33.429Z,85.20
2019-05-29T09:46:05.229Z,84.80
2019-05-29T09:48:49.241Z,84.60
2019-05-29T09:51:20.769Z,84.60
2019-05-29T09:53:43.528Z,84.60
2019-05-29T09:56:17.059Z,84.50
2019-05-29T09:58:48.433Z,84.50
2019-05-29T10:01:23.852Z,84.20
2019-05-29T10:03:59.673Z,84.10
2019-05-29T10:06:30.778Z,83.80
2019-05-29T10:09:05.419Z,83.50
2019-05-29T10:11:36.863Z,83.80
2019-05-29T10:14:08.464Z,82.60
2019-05-29T10:16:40.180Z,82.50
2019-05-29T10:19:11.808Z,82.00
2019-05-29T10:21:43.591Z,81.70
2019-05-29T10:24:15.104Z,81.40
2019-05-29T10:26:46.408Z,81.40
2019-05-29T10:29:18.108Z,81.60
2019-05-29T10:31:51.098Z,81.60
2019-05-29T10:34:22.889Z,81.70
2019-05-29T10:36:54.930Z,81.50
2019-05-29T10:39:26.492Z,81.40
2019-05-29T10:41:58.239Z,81.30
2019-05-29T10:44:29.684Z,81.30
2019-05-29T10:47:01.461Z,81.50
2019-05-29T10:49:32.947Z,81.90
2019-05-29T10:52:14.538Z,81.90
2019-05-29T10:54:39.291Z,81.50
2019-05-29T10:57:11.056Z,81.30
2019-05-29T10:59:42.328Z,81.10
2019-05-29T11:02:14.020Z,80.70
2019-05-29T11:04:50.351Z,80.70
2019-05-29T11:07:18.971Z,81.10
2019-05-29T11:09:50.497Z,81.20
2019-05-29T11:12:22.065Z,80.80
2019-05-29T11:14:54.940Z,80.10
2019-05-29T11:17:26.890Z,79.50
2019-05-29T11:19:58.394Z,78.70
2019-05-29T11:22:29.820Z,78.30
2019-05-29T11:25:21.101Z,78.20
2019-05-29T11:27:35.061Z,78.00
2019-05-29T11:30:08.416Z,77.60
2019-05-29T11:32:39.928Z,77.30
2019-05-29T11:35:12.242Z,76.80
2019-05-29T11:37:43.608Z,76.20
2019-05-29T11:40:15.987Z,75.70
2019-05-29T11:42:47.397Z,75.40
2019-05-29T11:45:19.309Z,75.40
2019-05-29T11:47:51.526Z,75.10
2019-05-29T11:50:23.522Z,74.80
2019-05-29T11:52:56.239Z,74.70
2019-05-29T11:55:28.029Z,74.10
2019-05-29T11:58:00.038Z,74.50
2019-05-29T12:00:31.955Z,74.70
2019-05-29T12:03:04.947Z,73.80
2019-05-29T12:05:36.342Z,73.50
2019-05-29T12:08:07.766Z,74.00
2019-05-29T12:10:39.341Z,73.20
2019-05-29T12:13:11.116Z,72.60
2019-05-29T12:15:42.685Z,72.30
2019-05-29T12:18:23.572Z,71.70
2019-05-29T12:20:48.132Z,70.40
2019-05-29T12:23:26.418Z,70.20
2019-05-29T12:26:13.935Z,69.40
2019-05-29T12:28:27.777Z,68.80
2019-05-29T12:31:01.370Z,67.10
2019-05-29T12:33:33.136Z,65.60
2019-05-29T12:36:04.833Z,65.60
2019-05-29T12:38:36.503Z,66.30
2019-05-29T12:41:07.941Z,66.90
2019-05-29T12:43:39.976Z,66.30
2019-05-29T12:46:11.251Z,65.00
2019-05-29T12:48:42.754Z,64.60
2019-05-29T12:51:15.595Z,64.10
2019-05-29T12:53:47.591Z,63.40
2019-05-29T12:56:19.294Z,62.90
2019-05-29T12:58:51.186Z,62.90
2019-05-29T13:01:23.786Z,61.20
2019-05-29T13:03:56.642Z,60.30
2019-05-29T13:06:28.483Z,60.30
2019-05-29T13:09:00.510Z,61.40
2019-05-29T13:11:31.974Z,60.80
2019-05-29T13:14:04.708Z,60.40
2019-05-29T13:16:36.434Z,59.80
2019-05-29T13:19:07.748Z,59.50
2019-05-29T13:21:39.075Z,59.50
2019-05-29T13:24:11.744Z,59.40
2019-05-29T13:26:43.382Z,60.40
2019-05-29T13:29:14.825Z,60.10
2019-05-29T13:31:46.234Z,60.10
2019-05-29T13:34:17.639Z,58.90
2019-05-29T13:36:49.140Z,58.30
2019-05-29T13:39:21.708Z,57.70
2019-05-29T13:41:53.106Z,57.10
2019-05-29T13:44:24.867Z,57.20
2019-05-29T13:46:57.707Z,58.00
2019-05-29T13:49:29.127Z,57.60
2019-05-29T13:52:02.232Z,57.20
2019-05-29T13:54:33.754Z,57.30
2019-05-29T13:57:06.814Z,56.60
2019-05-29T13:59:39.367Z,55.80
2019-05-29T14:02:11.006Z,56.20
2019-05-29T14:04:42.570Z,56.20
2019-05-29T14:07:14.007Z,55.80
2019-05-29T14:09:45.314Z,55.50
2019-05-29T14:12:16.847Z,56.10
2019-05-29T14:14:48.140Z,55.60
2019-05-29T14:17:19.937Z,55.20
2019-05-29T14:19:51.408Z,56.30
2019-05-29T14:22:22.818Z,57.10
2019-05-29T14:24:54.387Z,56.90
2019-05-29T14:27:25.579Z,56.20
2019-05-29T14:29:57.303Z,56.00
2019-05-29T14:32:28.990Z,56.30
2019-05-29T14:35:00.264Z,55.70
2019-05-29T14:37:31.812Z,55.90
2019-05-29T14:40:08.023Z,55.90
2019-05-29T14:42:40.868Z,55.60
2019-05-29T14:45:14.169Z,55.20
2019-05-29T14:47:45.688Z,56.10
2019-05-29T14:50:19.337Z,56.60
2019-05-29T14:52:50.969Z,57.10
2019-05-29T14:55:22.380Z,57.30
2019-05-29T14:57:53.664Z,57.70
2019-05-29T15:00:25.814Z,57.20
2019-05-29T15:02:57.385Z,56.50
2019-05-29T15:05:28.717Z,56.00
2019-05-29T15:07:59.953Z,55.70
2019-05-29T15:10:31.196Z,56.10
2019-05-29T15:13:04.207Z,56.70
2019-05-29T15:15:36.305Z,56.50
2019-05-29T15:18:08.834Z,56.60
2019-05-29T15:20:41.177Z,56.20
2019-05-29T15:23:13.494Z,56.20
2019-05-29T15:25:44.975Z,55.80
2019-05-29T15:28:17.983Z,56.00
2019-05-29T15:30:49.481Z,56.20
2019-05-29T15:33:20.793Z,56.20
2019-05-29T15:35:52.722Z,55.70
2019-05-29T15:38:24.161Z,55.70
2019-05-29T15:40:55.608Z,56.00
2019-05-29T15:43:26.981Z,56.10
2019-05-29T15:45:58.341Z,56.20
2019-05-29T15:48:29.909Z,56.20
2019-05-29T15:51:01.404Z,57.20
2019-05-29T15:53:32.667Z,57.10
2019-05-29T15:56:20.207Z,57.10
2019-05-29T15:58:37.137Z,57.60
2019-05-29T16:01:09.661Z,57.20
2019-05-29T16:03:41.594Z,57.50
2019-05-29T16:06:13.873Z,57.70
2019-05-29T16:08:45.439Z,57.80
2019-05-29T16:11:16.885Z,57.80
2019-05-29T16:13:48.486Z,58.10
2019-05-29T16:16:19.742Z,58.90
2019-05-29T16:18:53.388Z,58.60
2019-05-29T16:21:24.683Z,58.90
2019-05-29T16:23:58.337Z,59.60
2019-05-29T16:26:29.735Z,59.70
2019-05-29T16:29:01.034Z,59.50
2019-05-29T16:31:32.640Z,59.30
2019-05-29T16:34:04.131Z,59.30
2019-05-29T16:36:35.775Z,59.10
2019-05-29T16:39:07.164Z,59.00
2019-05-29T16:41:38.927Z,59.70
2019-05-29T16:44:11.913Z,59.80
2019-05-29T16:46:43.453Z,59.80
2019-05-29T16:49:16.541Z,60.30
2019-05-29T16:51:47.982Z,61.30
2019-05-29T16:54:19.265Z,61.70
2019-05-29T16:56:50.505Z,61.90
2019-05-29T16:59:24.953Z,61.60
2019-05-29T17:01:56.154Z,61.20
2019-05-29T17:04:27.700Z,61.20
2019-05-29T17:06:59.070Z,61.10
2019-05-29T17:09:30.372Z,60.80
2019-05-29T17:12:01.922Z,61.00
2019-05-29T17:14:33.224Z,60.80
2019-05-29T17:17:04.807Z,60.70
2019-05-29T17:19:36.092Z,60.60
2019-05-29T17:22:07.681Z,61.00
2019-05-29T17:24:39.222Z,60.90
2019-05-29T17:27:10.556Z,60.80
2019-05-29T17:29:42.108Z,60.70
2019-05-29T17:32:14.680Z,60.30
2019-05-29T17:34:46.429Z,60.90
2019-05-29T17:37:19.035Z,60.80
2019-05-29T17:39:51.167Z,60.60
2019-05-29T17:42:22.939Z,60.70
2019-05-29T17:44:54.331Z,60.80
2019-05-29T17:47:25.795Z,60.70
2019-05-29T17:49:57.365Z,60.70
2019-05-29T17:52:28.881Z,59.90
2019-05-29T17:55:00.152Z,59.30
2019-05-29T17:57:31.573Z,59.00
2019-05-29T18:00:08.911Z,59.20
2019-05-29T18:02:51.569Z,59.20
2019-05-29T18:05:16.419Z,58.70
2019-05-29T18:07:49.063Z,57.90
2019-05-29T18:10:22.155Z,57.50
2019-05-29T18:12:53.960Z,57.30
2019-05-29T18:15:25.698Z,57.00
2019-05-29T18:17:57.381Z,56.30
2019-05-29T18:20:29.659Z,56.20
2019-05-29T18:23:00.914Z,56.30
2019-05-29T18:25:32.808Z,56.30
2019-05-29T18:28:04.054Z,56.00
2019-05-29T18:30:35.370Z,55.80
2019-05-29T18:33:08.129Z,55.40
2019-05-29T18:35:39.527Z,55.10
2019-05-29T18:38:10.822Z,55.00
2019-05-29T18:40:42.325Z,54.80
2019-05-29T18:43:16.698Z,55.10
2019-05-29T18:45:47.989Z,55.80
2019-05-29T18:48:19.163Z,56.00
2019-05-29T18:50:50.432Z,55.60
2019-05-29T18:53:22.714Z,55.60
2019-05-29T18:55:54.178Z,55.90
2019-05-29T18:58:26.001Z,56.00
2019-05-29T19:00:57.804Z,56.00
2019-05-29T19:03:29.591Z,56.30
2019-05-29T19:06:01.116Z,56.10
2019-05-29T19:08:32.716Z,56.20
2019-05-29T19:11:04.300Z,56.30
2019-05-29T19:13:35.680Z,56.70
2019-05-29T19:16:07.541Z,56.80
2019-05-29T19:18:38.856Z,57.20
2019-05-29T19:21:10.106Z,57.90
2019-05-29T19:23:45.266Z,58.20
2019-05-29T19:26:16.556Z,58.90
2019-05-29T19:28:48.945Z,59.40
2019-05-29T19:31:20.244Z,59.20
2019-05-29T19:33:51.778Z,59.90
2019-05-29T19:36:23.619Z,60.80
2019-05-29T19:38:55.304Z,60.60
2019-05-29T19:41:27.838Z,60.70
2019-05-29T19:43:59.406Z,61.10
2019-05-29T19:46:31.374Z,61.60
2019-05-29T19:49:03.464Z,61.90
2019-05-29T19:51:35.453Z,62.30
2019-05-29T19:54:06.970Z,62.60
2019-05-29T19:56:38.286Z,62.90
2019-05-29T19:59:09.595Z,62.80
2019-05-29T20:01:40.985Z,62.40
2019-05-29T20:04:12.263Z,62.50
2019-05-29T20:06:44.203Z,62.40
2019-05-29T20:09:15.411Z,62.50
2019-05-29T20:11:46.724Z,62.70
2019-05-29T20:14:18.133Z,62.90
2019-05-29T20:16:49.518Z,62.90
2019-05-29T20:19:20.721Z,63.40
2019-05-29T20:21:52.055Z,63.70
2019-05-29T20:24:23.262Z,63.90
2019-05-29T20:26:55.082Z,64.10
2019-05-29T20:29:26.517Z,64.30
2019-05-29T20:31:57.838Z,64.30
2019-05-29T20:34:29.036Z,64.90
2019-05-29T20:37:00.206Z,64.90
2019-05-29T20:39:32.823Z,64.40
2019-05-29T20:42:04.452Z,64.20
2019-05-29T20:44:36.692Z,64.50
2019-05-29T20:47:08.185Z,64.40
2019-05-29T20:49:40.453Z,64.10
2019-05-29T20:52:11.853Z,64.10
2019-05-29T20:54:43.207Z,64.10
2019-05-29T20:57:14.608Z,63.80
2019-05-29T20:59:46.070Z,63.70
2019-05-29T21:02:17.339Z,63.70
2019-05-29T21:04:48.669Z,63.80
2019-05-29T21:07:19.927Z,63.90
2019-05-29T21:09:51.214Z,64.00
2019-05-29T21:12:22.461Z,64.30
2019-05-29T21:14:53.761Z,64.50
2019-05-29T21:17:25.038Z,64.50
2019-05-29T21:19:56.382Z,64.80
2019-05-29T21:22:29.017Z,64.80
2019-05-29T21:25:06.774Z,65.00
2019-05-29T21:27:34.996Z,65.10
2019-05-29T21:30:07.222Z,65.20
2019-05-29T21:32:40.022Z,65.50
2019-05-29T21:35:11.896Z,65.60
2019-05-29T21:37:44.322Z,65.80
2019-05-29T21:40:16.048Z,66.20
2019-05-29T21:42:47.450Z,66.30
2019-05-29T21:45:19.451Z,66.70
2019-05-29T21:47:50.951Z,66.90
2019-05-29T21:50:22.218Z,67.00
2019-05-29T21:52:53.631Z,67.20
2019-05-29T21:55:25.119Z,67.40
2019-05-29T21:57:56.406Z,67.40
2019-05-29T22:00:32.505Z,67.60
2019-05-29T22:03:04.172Z,67.70
2019-05-29T22:05:35.523Z,67.80
2019-05-29T22:08:06.829Z,68.00
2019-05-29T22:10:38.366Z,68.10
2019-05-29T22:13:09.637Z,68.10
2019-05-29T22:15:40.960Z,68.20
2019-05-29T22:18:12.817Z,68.30
2019-05-29T22:20:44.083Z,68.20
2019-05-29T22:23:15.400Z,68.20
2019-05-29T22:25:46.960Z,68.20
2019-05-29T22:28:18.305Z,68.20
2019-05-29T22:30:51.295Z,68.50
2019-05-29T22:33:23.052Z,68.50
2019-05-29T22:35:55.670Z,68.40
2019-05-29T22:38:27.125Z,68.50
2019-05-29T22:40:59.613Z,68.70
2019-05-29T22:43:31.413Z,68.70
2019-05-29T22:46:03.306Z,68.80
2019-05-29T22:48:34.514Z,69.00
2019-05-29T22:51:05.851Z,69.10
2019-05-29T22:53:37.159Z,69.20
2019-05-29T22:56:08.628Z,69.40
2019-05-29T22:58:39.928Z,69.50
2019-05-29T23:01:11.145Z,69.70
2019-05-29T23:03:42.336Z,69.70
2019-05-29T23:06:13.605Z,69.90
2019-05-29T23:08:44.838Z,70.20
2019-05-29T23:11:16.585Z,70.50
2019-05-29T23:13:48.065Z,70.80
2019-05-29T23:16:19.713Z,70.90
2019-05-29T23:18:52.319Z,71.10
2019-05-29T23:21:24.000Z,71.60
2019-05-29T23:23:55.405Z,71.80
2019-05-29T23:26:26.794Z,72.30
2019-05-29T23:28:59.278Z,72.80
2019-05-29T23:31:30.893Z,73.00
2019-05-29T23:34:03.307Z,73.20
2019-05-29T23:36:34.637Z,73.30
2019-05-29T23:39:05.817Z,73.20
2019-05-29T23:41:37.065Z,73.40
2019-05-29T23:44:08.353Z,73.70
2019-05-29T23:46:39.650Z,73.80
2019-05-29T23:49:10.964Z,74.00
2019-05-29T23:51:42.353Z,74.20
2019-05-29T23:54:13.598Z,74.40
2019-05-29T23:56:44.852Z,74.40
2019-05-29T23:59:16.463Z,74.20
